Terminal Aerodrome Forecast
Issued by NWS Buffalo, NY

Home | Current Version | Previous Version | Text Only | Print | Product List | Glossary On
Versions: 1 2 3 4 5 6 7 8 9 10 11 12 13 14 15 16 17 18 19 20 21 22 23 24 25 26
297
FTUS41 KBUF 010047 AAA
TAFART
TAF AMD
KART 010047Z 0101/0124 05012KT P6SM -SHRA OVC035
     FM010200 11010KT P6SM VCSH OVC040 WS020/19040KT
     FM010900 18008KT P6SM VCSH BKN025
     FM011100 16008KT P6SM BKN025
     FM011700 19008KT P6SM OVC050
     FM012100 17008KT P6SM VCSH OVC080
     FM012300 17008KT 4SM SHRA VCTS OVC025CB=

USA.gov is the U.S. government's official web portal to all federal, state and local government web resources and services.